createdAt,value
2023-05-05T00:01:55.861Z,12.38
2023-05-05T00:04:41.084Z,12.38
2023-05-05T00:07:26.202Z,12.42
2023-05-05T00:10:14.748Z,12.42
2023-05-05T00:13:06.534Z,12.40
2023-05-05T00:15:56.358Z,12.41
2023-05-05T00:18:41.714Z,12.40
2023-05-05T00:21:27.851Z,12.39
2023-05-05T00:24:12.916Z,12.38
2023-05-05T00:26:58.110Z,12.37
2023-05-05T00:29:43.236Z,12.34
2023-05-05T00:32:28.655Z,12.31
2023-05-05T00:35:13.890Z,12.30
2023-05-05T00:37:59.464Z,12.28
2023-05-05T00:40:44.773Z,12.25
2023-05-05T00:43:30.234Z,12.24
2023-05-05T00:46:24.325Z,12.28
2023-05-05T00:49:10.121Z,12.29
2023-05-05T00:51:56.092Z,12.26
2023-05-05T00:54:41.545Z,12.19
2023-05-05T00:57:28.480Z,12.17
2023-05-05T01:00:14.285Z,12.17
2023-05-05T01:03:00.001Z,12.17
2023-05-05T01:06:01.664Z,12.13
2023-05-05T01:12:07.633Z,12.09
2023-05-05T01:15:01.191Z,12.02
2023-05-05T01:18:33.049Z,12.00
2023-05-05T01:21:53.621Z,11.99
2023-05-05T01:24:47.581Z,11.98
2023-05-05T01:27:59.320Z,11.97
2023-05-05T01:31:03.411Z,11.96
2023-05-05T01:33:51.902Z,11.96
2023-05-05T01:36:45.354Z,11.93
2023-05-05T01:39:34.910Z,11.91
2023-05-05T01:42:21.072Z,11.89
2023-05-05T01:45:09.265Z,11.83
2023-05-05T01:47:56.998Z,11.84
2023-05-05T01:50:46.598Z,11.83
2023-05-05T01:53:33.278Z,11.83
2023-05-05T01:56:22.680Z,11.77
2023-05-05T01:59:09.893Z,11.75
2023-05-05T02:01:57.358Z,11.71
2023-05-05T02:04:44.162Z,11.69
2023-05-05T02:07:33.107Z,11.64
2023-05-05T02:10:18.662Z,11.60
2023-05-05T02:13:05.936Z,11.60
2023-05-05T02:15:53.279Z,11.57
2023-05-05T02:18:39.073Z,11.58
2023-05-05T02:21:24.116Z,11.56
2023-05-05T02:24:09.502Z,11.52
2023-05-05T02:26:57.979Z,11.46
2023-05-05T02:29:53.627Z,11.46
2023-05-05T02:32:50.528Z,11.45
2023-05-05T02:35:42.036Z,11.45
2023-05-05T02:38:33.187Z,11.45
2023-05-05T02:41:20.968Z,11.44
2023-05-05T02:44:08.291Z,11.43
2023-05-05T02:46:54.950Z,11.45
2023-05-05T02:49:42.998Z,11.40
2023-05-05T02:52:28.540Z,11.40
2023-05-05T02:55:13.810Z,11.38
2023-05-05T02:58:21.574Z,11.39
2023-05-05T03:01:29.263Z,11.41
2023-05-05T03:04:29.192Z,11.41
2023-05-05T03:07:27.612Z,11.40
2023-05-05T03:10:18.359Z,11.35
2023-05-05T03:13:11.261Z,11.36
2023-05-05T03:16:06.540Z,11.34
2023-05-05T03:18:52.840Z,11.31
2023-05-05T03:21:40.070Z,11.30
2023-05-05T03:24:25.939Z,11.29
2023-05-05T03:27:20.374Z,11.25
2023-05-05T03:30:06.757Z,11.21
2023-05-05T03:32:54.920Z,11.21
2023-05-05T03:35:40.192Z,11.17
2023-05-05T03:38:28.075Z,11.16
2023-05-05T03:41:13.509Z,11.13
2023-05-05T03:43:59.586Z,11.09
2023-05-05T03:46:45.623Z,11.03
2023-05-05T03:49:33.116Z,11.04
2023-05-05T03:52:18.571Z,10.99
2023-05-05T03:55:04.281Z,10.98
2023-05-05T03:57:49.449Z,10.97
2023-05-05T04:00:34.863Z,10.92
2023-05-05T04:03:20.505Z,10.90
2023-05-05T04:06:06.110Z,10.86
2023-05-05T04:08:51.820Z,10.82
2023-05-05T04:11:36.785Z,10.79
2023-05-05T04:14:22.266Z,10.79
2023-05-05T04:17:07.986Z,10.82
2023-05-05T04:19:53.899Z,10.82
2023-05-05T04:22:39.084Z,10.81
2023-05-05T04:25:24.420Z,10.80
2023-05-05T04:28:09.712Z,10.85
2023-05-05T04:30:55.050Z,10.86
2023-05-05T04:33:40.343Z,10.95
2023-05-05T04:36:25.981Z,11.00
2023-05-05T04:39:11.735Z,11.08
2023-05-05T04:41:56.838Z,11.07
2023-05-05T04:44:42.776Z,11.00
2023-05-05T04:47:28.037Z,11.00
2023-05-05T04:50:13.885Z,11.06
2023-05-05T04:52:59.018Z,11.06
2023-05-05T04:55:44.420Z,11.07
2023-05-05T04:58:29.903Z,10.98
2023-05-05T05:01:14.914Z,10.98
2023-05-05T05:04:00.492Z,11.02
2023-05-05T05:06:45.980Z,11.07
2023-05-05T05:09:31.569Z,11.13
2023-05-05T05:12:17.224Z,11.22
2023-05-05T05:15:02.620Z,11.34
2023-05-05T05:17:48.332Z,11.41
2023-05-05T05:20:33.718Z,11.43
2023-05-05T05:23:19.399Z,11.53
2023-05-05T05:26:06.405Z,11.63
2023-05-05T05:28:52.445Z,11.69
2023-05-05T05:31:39.663Z,11.79
2023-05-05T05:34:25.939Z,11.74
2023-05-05T05:37:11.358Z,11.78
2023-05-05T05:39:56.862Z,11.78
2023-05-05T05:42:43.763Z,11.84
2023-05-05T05:45:29.450Z,11.84
2023-05-05T05:48:15.213Z,11.92
2023-05-05T05:51:02.005Z,11.89
2023-05-05T05:53:47.554Z,11.90
2023-05-05T05:56:33.061Z,12.05
2023-05-05T05:59:18.931Z,12.21
2023-05-05T06:02:04.468Z,12.43
2023-05-05T06:04:51.004Z,12.72
2023-05-05T06:07:36.122Z,12.88
2023-05-05T06:13:12.219Z,12.74
2023-05-05T06:16:01.504Z,12.85
2023-05-05T06:18:47.093Z,12.72
2023-05-05T06:21:32.589Z,12.77
2023-05-05T06:24:17.943Z,12.66
2023-05-05T06:27:03.609Z,12.83
2023-05-05T06:29:49.045Z,13.05
2023-05-05T06:32:34.552Z,13.10
2023-05-05T06:35:20.961Z,13.31
2023-05-05T06:38:06.448Z,13.15
2023-05-05T06:40:51.703Z,12.96
2023-05-05T06:43:37.064Z,12.91
2023-05-05T06:46:26.169Z,12.91
2023-05-05T06:49:11.388Z,12.97
2023-05-05T06:51:56.941Z,13.06
2023-05-05T06:54:43.619Z,13.21
2023-05-05T06:57:29.089Z,13.44
2023-05-05T07:00:15.004Z,13.61
2023-05-05T07:03:00.629Z,13.48
2023-05-05T07:05:45.936Z,13.45
2023-05-05T07:08:31.304Z,13.45
2023-05-05T07:11:16.810Z,13.59
2023-05-05T07:14:02.250Z,13.82
2023-05-05T07:16:47.519Z,13.96
2023-05-05T07:19:35.190Z,14.13
2023-05-05T07:22:20.512Z,14.09
2023-05-05T07:25:06.581Z,14.09
2023-05-05T07:27:51.618Z,14.26
2023-05-05T07:30:39.605Z,14.34
2023-05-05T07:36:48.567Z,14.41
2023-05-05T07:39:33.943Z,14.47
2023-05-05T07:42:20.851Z,14.53
2023-05-05T07:45:07.802Z,14.86
2023-05-05T07:47:52.926Z,14.95
2023-05-05T07:50:38.467Z,14.81
2023-05-05T07:53:23.654Z,14.77
2023-05-05T07:56:09.248Z,15.09
2023-05-05T07:58:55.111Z,14.88
2023-05-05T08:01:40.283Z,14.77
2023-05-05T08:04:25.844Z,14.69
2023-05-05T08:07:11.001Z,14.86
2023-05-05T08:09:56.240Z,14.96
2023-05-05T08:12:41.673Z,15.28
2023-05-05T08:15:26.782Z,15.46
2023-05-05T08:18:12.361Z,15.42
2023-05-05T08:20:57.922Z,15.31
2023-05-05T08:23:43.976Z,15.27
2023-05-05T08:26:29.036Z,15.18
2023-05-05T08:29:13.972Z,15.31
2023-05-05T08:31:59.564Z,15.33
2023-05-05T08:34:45.385Z,15.31
2023-05-05T08:37:34.266Z,15.40
2023-05-05T08:40:22.789Z,15.49
2023-05-05T08:43:08.192Z,15.74
2023-05-05T08:45:56.130Z,15.90
2023-05-05T08:48:45.804Z,15.95
2023-05-05T08:51:41.781Z,16.31
2023-05-05T08:54:30.638Z,16.19
2023-05-05T08:57:23.066Z,16.34
2023-05-05T09:00:10.203Z,16.45
2023-05-05T09:03:03.191Z,16.72
2023-05-05T09:05:48.765Z,16.83
2023-05-05T09:08:34.164Z,16.65
2023-05-05T09:11:19.901Z,16.58
2023-05-05T09:14:05.373Z,16.87
2023-05-05T09:16:50.601Z,17.17
2023-05-05T09:20:05.674Z,17.32
2023-05-05T09:22:51.501Z,17.15
2023-05-05T09:25:36.882Z,17.15
2023-05-05T09:28:22.126Z,17.05
2023-05-05T09:31:16.274Z,16.82
2023-05-05T09:34:03.570Z,16.78
2023-05-05T09:36:49.312Z,16.63
2023-05-05T09:39:35.067Z,16.99
2023-05-05T09:42:23.431Z,17.19
2023-05-05T09:45:27.597Z,16.93
2023-05-05T09:48:30.498Z,16.95
2023-05-05T09:51:16.103Z,17.06
2023-05-05T09:54:01.681Z,17.23
2023-05-05T09:56:47.623Z,17.35
2023-05-05T09:59:32.876Z,17.42
2023-05-05T10:02:18.231Z,17.62
2023-05-05T10:05:14.487Z,17.64
2023-05-05T10:08:13.188Z,17.72
2023-05-05T10:11:00.826Z,18.10
2023-05-05T10:13:46.360Z,17.90
2023-05-05T10:16:33.177Z,18.34
2023-05-05T10:19:24.167Z,18.42
2023-05-05T10:22:10.739Z,18.30
2023-05-05T10:25:03.032Z,18.32
2023-05-05T10:27:52.862Z,18.46
2023-05-05T10:30:49.032Z,18.52
2023-05-05T10:33:47.714Z,18.41
2023-05-05T10:36:33.403Z,18.33
2023-05-05T10:39:20.149Z,18.51
2023-05-05T10:42:05.312Z,18.71
2023-05-05T10:44:51.961Z,18.84
2023-05-05T10:47:40.331Z,18.65
2023-05-05T10:50:28.566Z,18.53
2023-05-05T10:53:27.877Z,18.64
2023-05-05T10:56:26.591Z,18.54
2023-05-05T10:59:37.083Z,18.82
2023-05-05T11:02:30.154Z,19.15
2023-05-05T11:05:18.093Z,19.22
2023-05-05T11:08:27.011Z,19.20
2023-05-05T11:11:16.031Z,18.95
2023-05-05T11:14:28.284Z,18.97
2023-05-05T11:17:45.341Z,19.14
2023-05-05T11:20:43.485Z,19.44
2023-05-05T11:23:29.994Z,19.14
2023-05-05T11:26:16.619Z,18.89
2023-05-05T11:29:04.596Z,18.93
2023-05-05T11:32:16.376Z,19.06
2023-05-05T11:35:06.164Z,19.32
2023-05-05T11:38:03.473Z,19.10
2023-05-05T11:40:50.088Z,19.11
2023-05-05T11:43:35.519Z,19.01
2023-05-05T11:46:21.225Z,19.10
2023-05-05T11:49:08.967Z,19.30
2023-05-05T11:52:04.637Z,19.25
2023-05-05T11:54:50.582Z,19.23
2023-05-05T11:57:35.624Z,19.43
2023-05-05T12:00:32.337Z,19.54
2023-05-05T12:03:17.769Z,19.54
2023-05-05T12:06:07.401Z,19.59
2023-05-05T12:08:53.650Z,19.65
2023-05-05T12:11:51.077Z,19.56
2023-05-05T12:14:36.574Z,19.76
2023-05-05T12:17:23.377Z,19.80
2023-05-05T12:20:10.451Z,19.61
2023-05-05T12:23:03.106Z,19.60
2023-05-05T12:25:48.348Z,19.76
2023-05-05T12:28:54.165Z,20.00
2023-05-05T12:31:41.729Z,20.14
2023-05-05T12:34:27.535Z,19.64
2023-05-05T12:37:12.981Z,19.59
2023-05-05T12:39:58.596Z,19.72
2023-05-05T12:42:45.123Z,19.60
2023-05-05T12:45:31.258Z,19.84
2023-05-05T12:48:22.872Z,19.56
2023-05-05T12:51:19.830Z,19.66
2023-05-05T12:54:11.332Z,19.69
2023-05-05T12:56:59.602Z,19.73
2023-05-05T12:59:45.040Z,19.58
2023-05-05T13:02:34.278Z,19.76
2023-05-05T13:05:52.551Z,19.79
2023-05-05T13:08:47.420Z,19.86
2023-05-05T13:11:37.621Z,19.98
2023-05-05T13:14:23.589Z,19.87
2023-05-05T13:17:09.801Z,19.91
2023-05-05T13:19:55.262Z,19.85
2023-05-05T13:22:40.739Z,19.91
2023-05-05T13:25:26.040Z,19.94
2023-05-05T13:28:11.281Z,20.03
2023-05-05T13:30:58.525Z,19.98
2023-05-05T13:33:43.568Z,19.88
2023-05-05T13:36:29.043Z,19.74
2023-05-05T13:39:14.334Z,19.78
2023-05-05T13:41:59.513Z,19.83
2023-05-05T13:44:45.024Z,19.68
2023-05-05T13:47:30.146Z,19.72
2023-05-05T13:50:15.572Z,19.73
2023-05-05T13:53:00.968Z,19.80
2023-05-05T13:55:46.434Z,19.79
2023-05-05T13:58:31.694Z,19.95
2023-05-05T14:01:17.192Z,20.02
2023-05-05T14:04:05.133Z,20.16
2023-05-05T14:06:51.317Z,20.07
2023-05-05T14:09:36.373Z,20.12
2023-05-05T14:12:21.531Z,20.14
2023-05-05T14:15:07.504Z,20.06
2023-05-05T14:17:53.272Z,20.03
2023-05-05T14:20:38.545Z,19.97
2023-05-05T14:23:23.718Z,19.91
2023-05-05T14:26:09.256Z,19.79
2023-05-05T14:28:54.568Z,19.93
2023-05-05T14:31:39.751Z,19.99
2023-05-05T14:34:25.196Z,19.98
2023-05-05T14:37:10.712Z,19.98
2023-05-05T14:39:56.258Z,19.87
2023-05-05T14:42:41.856Z,19.85
2023-05-05T14:45:29.638Z,19.89
2023-05-05T14:48:16.069Z,19.83
2023-05-05T14:51:01.656Z,19.76
2023-05-05T14:53:47.532Z,19.70
2023-05-05T14:56:32.934Z,19.72
2023-05-05T14:59:18.228Z,19.71
2023-05-05T15:02:03.444Z,19.67
2023-05-05T15:04:49.861Z,19.60
2023-05-05T15:07:34.918Z,19.57
